sensor_id;sensor_type;location;lat;lon;timestamp;pressure;altitude;pressure_sealevel;temperature
34807;BMP280;18310;55.586;12.286;2023-07-24T00:02:45;100209.19;;;23.17
34807;BMP280;18310;55.586;12.286;2023-07-24T00:05:51;100212.41;;;23.16
34807;BMP280;18310;55.586;12.286;2023-07-24T00:08:54;100202.69;;;23.11
34807;BMP280;18310;55.586;12.286;2023-07-24T00:11:57;100199.13;;;23.11
34807;BMP280;18310;55.586;12.286;2023-07-24T00:15:00;100201.47;;;23.12
34807;BMP280;18310;55.586;12.286;2023-07-24T00:18:05;100195.91;;;23.12
34807;BMP280;18310;55.586;12.286;2023-07-24T00:21:08;100193.41;;;23.14
34807;BMP280;18310;55.586;12.286;2023-07-24T00:24:12;100193.69;;;23.07
34807;BMP280;18310;55.586;12.286;2023-07-24T00:27:15;100187.41;;;23.16
34807;BMP280;18310;55.586;12.286;2023-07-24T00:30:18;100188.97;;;23.17
34807;BMP280;18310;55.586;12.286;2023-07-24T00:33:22;100190.63;;;23.14
34807;BMP280;18310;55.586;12.286;2023-07-24T00:36:25;100192.03;;;23.10
34807;BMP280;18310;55.586;12.286;2023-07-24T00:39:29;100189.81;;;23.05
34807;BMP280;18310;55.586;12.286;2023-07-24T00:42:32;100194.59;;;23.04
34807;BMP280;18310;55.586;12.286;2023-07-24T00:45:35;100185.06;;;23.05
34807;BMP280;18310;55.586;12.286;2023-07-24T00:48:40;100179.03;;;23.07
34807;BMP280;18310;55.586;12.286;2023-07-24T00:51:43;100180.59;;;23.08
34807;BMP280;18310;55.586;12.286;2023-07-24T00:54:47;100177.81;;;23.08
34807;BMP280;18310;55.586;12.286;2023-07-24T00:57:51;100167.38;;;23.12
34807;BMP280;18310;55.586;12.286;2023-07-24T01:00:54;100161.34;;;23.13
34807;BMP280;18310;55.586;12.286;2023-07-24T01:03:59;100159.31;;;23.14
34807;BMP280;18310;55.586;12.286;2023-07-24T01:07:02;100154.09;;;23.16
34807;BMP280;18310;55.586;12.286;2023-07-24T01:10:06;100145.16;;;23.12
34807;BMP280;18310;55.586;12.286;2023-07-24T01:13:15;100151.50;;;23.12
34807;BMP280;18310;55.586;12.286;2023-07-24T01:16:22;100146.38;;;23.11
34807;BMP280;18310;55.586;12.286;2023-07-24T01:19:35;100143.28;;;23.09
34807;BMP280;18310;55.586;12.286;2023-07-24T01:22:46;100141.72;;;23.08
34807;BMP280;18310;55.586;12.286;2023-07-24T01:25:57;100132.31;;;23.05
34807;BMP280;18310;55.586;12.286;2023-07-24T01:29:00;100131.97;;;23.03
34807;BMP280;18310;55.586;12.286;2023-07-24T01:32:04;100128.13;;;23.01
34807;BMP280;18310;55.586;12.286;2023-07-24T01:35:08;100128.13;;;23.01
34807;BMP280;18310;55.586;12.286;2023-07-24T01:38:13;100116.25;;;23.00
34807;BMP280;18310;55.586;12.286;2023-07-24T01:41:18;100116.56;;;23.02
34807;BMP280;18310;55.586;12.286;2023-07-24T01:44:21;100121.03;;;23.00
34807;BMP280;18310;55.586;12.286;2023-07-24T01:47:24;100117.03;;;23.01
34807;BMP280;18310;55.586;12.286;2023-07-24T01:50:27;100117.03;;;23.01
34807;BMP280;18310;55.586;12.286;2023-07-24T01:53:30;100114.09;;;23.04
34807;BMP280;18310;55.586;12.286;2023-07-24T01:56:36;100114.88;;;23.05
34807;BMP280;18310;55.586;12.286;2023-07-24T01:59:39;100111.00;;;23.02
34807;BMP280;18310;55.586;12.286;2023-07-24T02:02:42;100102.84;;;22.99
34807;BMP280;18310;55.586;12.286;2023-07-24T02:05:49;100098.75;;;22.91
34807;BMP280;18310;55.586;12.286;2023-07-24T02:08:52;100098.44;;;22.88
34807;BMP280;18310;55.586;12.286;2023-07-24T02:11:56;100096.47;;;22.89
34807;BMP280;18310;55.586;12.286;2023-07-24T02:14:59;100098.91;;;22.87
34807;BMP280;18310;55.586;12.286;2023-07-24T02:18:02;100089.16;;;22.82
34807;BMP280;18310;55.586;12.286;2023-07-24T02:21:05;100090.06;;;22.79
34807;BMP280;18310;55.586;12.286;2023-07-24T02:24:08;100086.97;;;22.77
34807;BMP280;18310;55.586;12.286;2023-07-24T02:27:24;100077.41;;;22.78
34807;BMP280;18310;55.586;12.286;2023-07-24T02:30:28;100072.63;;;22.79
34807;BMP280;18310;55.586;12.286;2023-07-24T02:33:31;100067.41;;;22.81
34807;BMP280;18310;55.586;12.286;2023-07-24T02:36:34;100068.19;;;22.81
34807;BMP280;18310;55.586;12.286;2023-07-24T02:39:38;100065.56;;;22.78
34807;BMP280;18310;55.586;12.286;2023-07-24T02:42:42;100062.00;;;22.77
34807;BMP280;18310;55.586;12.286;2023-07-24T02:45:45;100066.59;;;22.71
34807;BMP280;18310;55.586;12.286;2023-07-24T02:48:48;100061.19;;;22.68
34807;BMP280;18310;55.586;12.286;2023-07-24T02:51:51;100060.38;;;22.67
34807;BMP280;18310;55.586;12.286;2023-07-24T02:54:54;100053.63;;;22.68
34807;BMP280;18310;55.586;12.286;2023-07-24T02:57:58;100062.72;;;22.69
34807;BMP280;18310;55.586;12.286;2023-07-24T03:01:04;100057.94;;;22.69
34807;BMP280;18310;55.586;12.286;2023-07-24T03:04:08;100055.81;;;22.73
34807;BMP280;18310;55.586;12.286;2023-07-24T03:07:12;100050.59;;;22.75
34807;BMP280;18310;55.586;12.286;2023-07-24T03:10:15;100044.28;;;22.75
34807;BMP280;18310;55.586;12.286;2023-07-24T03:13:20;100052.44;;;22.78
34807;BMP280;18310;55.586;12.286;2023-07-24T03:16:23;100051.53;;;22.81
34807;BMP280;18310;55.586;12.286;2023-07-24T03:19:26;100038.00;;;22.83
34807;BMP280;18310;55.586;12.286;2023-07-24T03:22:29;100039.88;;;22.86
34807;BMP280;18310;55.586;12.286;2023-07-24T03:25:32;100041.72;;;22.90
34807;BMP280;18310;55.586;12.286;2023-07-24T03:28:38;100040.78;;;22.93
34807;BMP280;18310;55.586;12.286;2023-07-24T03:31:42;100040.34;;;22.94
34807;BMP280;18310;55.586;12.286;2023-07-24T03:34:45;100043.44;;;22.96
34807;BMP280;18310;55.586;12.286;2023-07-24T03:37:48;100037.44;;;22.98
34807;BMP280;18310;55.586;12.286;2023-07-24T03:40:51;100036.53;;;23.01
34807;BMP280;18310;55.586;12.286;2023-07-24T03:43:56;100036.81;;;23.03
34807;BMP280;18310;55.586;12.286;2023-07-24T03:46:59;100035.94;;;23.06
34807;BMP280;18310;55.586;12.286;2023-07-24T03:50:02;100020.34;;;23.08
34807;BMP280;18310;55.586;12.286;2023-07-24T03:53:05;100016.81;;;23.08
34807;BMP280;18310;55.586;12.286;2023-07-24T03:56:08;100011.25;;;23.08
34807;BMP280;18310;55.586;12.286;2023-07-24T03:59:13;100009.56;;;23.10
34807;BMP280;18310;55.586;12.286;2023-07-24T04:02:16;100012.69;;;23.12
34807;BMP280;18310;55.586;12.286;2023-07-24T04:05:19;100017.28;;;23.15
34807;BMP280;18310;55.586;12.286;2023-07-24T04:08:22;100018.38;;;23.18
34807;BMP280;18310;55.586;12.286;2023-07-24T04:11:25;100016.22;;;23.22
34807;BMP280;18310;55.586;12.286;2023-07-24T04:14:29;100001.13;;;23.23
34807;BMP280;18310;55.586;12.286;2023-07-24T04:17:32;100008.50;;;23.26
34807;BMP280;18310;55.586;12.286;2023-07-24T04:20:37;100007.59;;;23.29
34807;BMP280;18310;55.586;12.286;2023-07-24T04:23:41;100018.25;;;23.30
34807;BMP280;18310;55.586;12.286;2023-07-24T04:26:44;100010.25;;;23.32
34807;BMP280;18310;55.586;12.286;2023-07-24T04:29:48;100011.78;;;23.33
34807;BMP280;18310;55.586;12.286;2023-07-24T04:32:51;100003.47;;;23.33
34807;BMP280;18310;55.586;12.286;2023-07-24T04:35:54;100000.38;;;23.31
34807;BMP280;18310;55.586;12.286;2023-07-24T04:38:58;99995.91;;;23.34
34807;BMP280;18310;55.586;12.286;2023-07-24T04:42:00;99992.97;;;23.37
34807;BMP280;18310;55.586;12.286;2023-07-24T04:45:06;99993.59;;;23.41
34807;BMP280;18310;55.586;12.286;2023-07-24T04:48:09;99993.59;;;23.41
34807;BMP280;18310;55.586;12.286;2023-07-24T04:51:12;99989.13;;;23.44
34807;BMP280;18310;55.586;12.286;2023-07-24T04:54:15;99995.00;;;23.46
34807;BMP280;18310;55.586;12.286;2023-07-24T04:57:18;99984.19;;;23.48
34807;BMP280;18310;55.586;12.286;2023-07-24T05:00:22;99986.38;;;23.53
34807;BMP280;18310;55.586;12.286;2023-07-24T05:03:26;99982.66;;;23.56
34807;BMP280;18310;55.586;12.286;2023-07-24T05:06:29;99989.13;;;23.62
34807;BMP280;18310;55.586;12.286;2023-07-24T05:09:32;99983.44;;;23.66
34807;BMP280;18310;55.586;12.286;2023-07-24T05:12:35;99979.25;;;23.70
34807;BMP280;18310;55.586;12.286;2023-07-24T05:15:40;99974.31;;;23.74
34807;BMP280;18310;55.586;12.286;2023-07-24T05:18:43;99974.31;;;23.74
34807;BMP280;18310;55.586;12.286;2023-07-24T05:21:46;99972.19;;;23.78
34807;BMP280;18310;55.586;12.286;2023-07-24T05:24:49;99959.97;;;23.85
34807;BMP280;18310;55.586;12.286;2023-07-24T05:27:52;99962.44;;;23.92
34807;BMP280;18310;55.586;12.286;2023-07-24T05:30:59;99972.91;;;24.06
34807;BMP280;18310;55.586;12.286;2023-07-24T05:34:02;99971.97;;;24.09
34807;BMP280;18310;55.586;12.286;2023-07-24T05:37:07;99974.16;;;24.14
34807;BMP280;18310;55.586;12.286;2023-07-24T05:40:10;99970.69;;;24.19
34807;BMP280;18310;55.586;12.286;2023-07-24T05:43:13;99978.59;;;24.21
34807;BMP280;18310;55.586;12.286;2023-07-24T05:46:17;99971.31;;;24.23
34807;BMP280;18310;55.586;12.286;2023-07-24T05:49:20;99974.72;;;24.27
34807;BMP280;18310;55.586;12.286;2023-07-24T05:52:23;99965.69;;;24.41
34807;BMP280;18310;55.586;12.286;2023-07-24T05:55:26;99961.19;;;24.53
34807;BMP280;18310;55.586;12.286;2023-07-24T05:58:29;99959.59;;;24.61
34807;BMP280;18310;55.586;12.286;2023-07-24T06:01:33;99964.97;;;24.64
34807;BMP280;18310;55.586;12.286;2023-07-24T06:04:36;99959.91;;;24.63
34807;BMP280;18310;55.586;12.286;2023-07-24T06:07:39;99970.88;;;24.66
34807;BMP280;18310;55.586;12.286;2023-07-24T06:10:42;99965.72;;;24.74
34807;BMP280;18310;55.586;12.286;2023-07-24T06:13:45;99968.75;;;25.09
34807;BMP280;18310;55.586;12.286;2023-07-24T06:16:50;99957.06;;;25.28
34807;BMP280;18310;55.586;12.286;2023-07-24T06:19:52;99951.22;;;25.41
34807;BMP280;18310;55.586;12.286;2023-07-24T06:22:55;99955.09;;;25.58
34807;BMP280;18310;55.586;12.286;2023-07-24T06:25:58;99953.19;;;25.64
34807;BMP280;18310;55.586;12.286;2023-07-24T06:29:01;99946.84;;;25.64
34807;BMP280;18310;55.586;12.286;2023-07-24T06:36:01;99942.34;;;25.81
34807;BMP280;18310;55.586;12.286;2023-07-24T06:42:55;99939.19;;;25.88
34807;BMP280;18310;55.586;12.286;2023-07-24T06:45:58;99940.44;;;25.87
34807;BMP280;18310;55.586;12.286;2023-07-24T06:49:01;99938.50;;;25.78
34807;BMP280;18310;55.586;12.286;2023-07-24T06:52:06;99943.13;;;25.81
34807;BMP280;18310;55.586;12.286;2023-07-24T06:55:10;99946.13;;;26.57
34807;BMP280;18310;55.586;12.286;2023-07-24T06:58:13;99941.47;;;27.08
34807;BMP280;18310;55.586;12.286;2023-07-24T07:01:16;99947.97;;;27.00
34807;BMP280;18310;55.586;12.286;2023-07-24T07:04:19;99952.97;;;26.76
34807;BMP280;18310;55.586;12.286;2023-07-24T07:07:24;99946.28;;;26.88
34807;BMP280;18310;55.586;12.286;2023-07-24T07:10:27;99956.91;;;27.24
34807;BMP280;18310;55.586;12.286;2023-07-24T07:13:30;99954.59;;;28.00
34807;BMP280;18310;55.586;12.286;2023-07-24T07:16:33;99952.03;;;28.27
34807;BMP280;18310;55.586;12.286;2023-07-24T07:19:37;99957.53;;;28.53
34807;BMP280;18310;55.586;12.286;2023-07-24T07:22:41;99955.47;;;28.53
34807;BMP280;18310;55.586;12.286;2023-07-24T07:25:45;99957.31;;;28.62
34807;BMP280;18310;55.586;12.286;2023-07-24T07:28:48;99950.00;;;28.70
34807;BMP280;18310;55.586;12.286;2023-07-24T07:31:51;99944.91;;;28.74
34807;BMP280;18310;55.586;12.286;2023-07-24T07:34:54;99944.44;;;28.81
34807;BMP280;18310;55.586;12.286;2023-07-24T07:37:59;99950.16;;;28.55
34807;BMP280;18310;55.586;12.286;2023-07-24T07:41:04;99939.25;;;28.21
34807;BMP280;18310;55.586;12.286;2023-07-24T07:44:08;99919.00;;;28.00
34807;BMP280;18310;55.586;12.286;2023-07-24T07:47:11;99937.44;;;27.86
34807;BMP280;18310;55.586;12.286;2023-07-24T07:50:14;99941.69;;;27.76
34807;BMP280;18310;55.586;12.286;2023-07-24T07:53:19;99929.16;;;27.72
34807;BMP280;18310;55.586;12.286;2023-07-24T07:56:23;99934.28;;;27.73
34807;BMP280;18310;55.586;12.286;2023-07-24T07:59:26;99935.88;;;27.80
34807;BMP280;18310;55.586;12.286;2023-07-24T08:02:30;99945.13;;;27.92
34807;BMP280;18310;55.586;12.286;2023-07-24T08:05:34;99947.69;;;27.95
34807;BMP280;18310;55.586;12.286;2023-07-24T08:08:39;99943.41;;;28.00
34807;BMP280;18310;55.586;12.286;2023-07-24T08:11:42;99939.84;;;27.99
34807;BMP280;18310;55.586;12.286;2023-07-24T08:14:45;99942.38;;;27.97
34807;BMP280;18310;55.586;12.286;2023-07-24T08:17:48;99944.50;;;28.08
34807;BMP280;18310;55.586;12.286;2023-07-24T08:20:52;99937.22;;;28.21
34807;BMP280;18310;55.586;12.286;2023-07-24T08:23:57;99925.81;;;28.25
34807;BMP280;18310;55.586;12.286;2023-07-24T08:27:02;99946.97;;;28.31
34807;BMP280;18310;55.586;12.286;2023-07-24T08:30:06;99938.81;;;28.33
34807;BMP280;18310;55.586;12.286;2023-07-24T08:33:11;99940.91;;;28.38
34807;BMP280;18310;55.586;12.286;2023-07-24T08:36:14;99954.16;;;28.43
34807;BMP280;18310;55.586;12.286;2023-07-24T08:39:19;99952.09;;;28.38
34807;BMP280;18310;55.586;12.286;2023-07-24T08:42:23;99948.97;;;28.31
34807;BMP280;18310;55.586;12.286;2023-07-24T08:45:27;99961.16;;;28.22
34807;BMP280;18310;55.586;12.286;2023-07-24T08:48:32;99957.78;;;28.13
34807;BMP280;18310;55.586;12.286;2023-07-24T08:51:39;99959.22;;;28.08
34807;BMP280;18310;55.586;12.286;2023-07-24T08:54:45;99944.97;;;28.06
34807;BMP280;18310;55.586;12.286;2023-07-24T08:57:49;99937.91;;;28.11
34807;BMP280;18310;55.586;12.286;2023-07-24T09:00:53;99939.22;;;28.15
34807;BMP280;18310;55.586;12.286;2023-07-24T09:03:57;99948.13;;;28.14
34807;BMP280;18310;55.586;12.286;2023-07-24T09:07:00;99941.97;;;28.10
34807;BMP280;18310;55.586;12.286;2023-07-24T09:10:07;99950.09;;;28.08
34807;BMP280;18310;55.586;12.286;2023-07-24T09:13:13;99950.91;;;28.14
34807;BMP280;18310;55.586;12.286;2023-07-24T09:16:23;99943.59;;;28.22
34807;BMP280;18310;55.586;12.286;2023-07-24T09:19:26;99957.84;;;28.24
34807;BMP280;18310;55.586;12.286;2023-07-24T09:22:30;99961.44;;;28.30
34807;BMP280;18310;55.586;12.286;2023-07-24T09:25:37;99954.41;;;28.40
34807;BMP280;18310;55.586;12.286;2023-07-24T09:28:41;99961.56;;;28.46
34807;BMP280;18310;55.586;12.286;2023-07-24T09:31:44;99958.25;;;28.48
34807;BMP280;18310;55.586;12.286;2023-07-24T09:34:49;99954.22;;;28.49
34807;BMP280;18310;55.586;12.286;2023-07-24T09:38:02;99951.16;;;28.47
34807;BMP280;18310;55.586;12.286;2023-07-24T09:41:08;99950.91;;;28.50
34807;BMP280;18310;55.586;12.286;2023-07-24T09:44:14;99950.91;;;28.56
34807;BMP280;18310;55.586;12.286;2023-07-24T09:47:17;99942.50;;;28.56
34807;BMP280;18310;55.586;12.286;2023-07-24T09:50:23;99950.69;;;28.65
34807;BMP280;18310;55.586;12.286;2023-07-24T09:53:32;99944.41;;;28.70
34807;BMP280;18310;55.586;12.286;2023-07-24T09:56:38;99953.84;;;28.78
34807;BMP280;18310;55.586;12.286;2023-07-24T09:59:56;99954.88;;;28.81
34807;BMP280;18310;55.586;12.286;2023-07-24T10:03:01;99951.03;;;28.73
34807;BMP280;18310;55.586;12.286;2023-07-24T10:06:05;99961.97;;;28.71
34807;BMP280;18310;55.586;12.286;2023-07-24T10:09:11;99947.69;;;28.69
34807;BMP280;18310;55.586;12.286;2023-07-24T10:12:15;99945.88;;;28.66
34807;BMP280;18310;55.586;12.286;2023-07-24T10:15:20;99945.19;;;28.76
34807;BMP280;18310;55.586;12.286;2023-07-24T10:18:26;99950.53;;;28.74
34807;BMP280;18310;55.586;12.286;2023-07-24T10:21:31;99954.06;;;28.69
34807;BMP280;18310;55.586;12.286;2023-07-24T10:24:35;99939.31;;;28.74
34807;BMP280;18310;55.586;12.286;2023-07-24T10:30:29;99962.63;;;28.54
34807;BMP280;18310;55.586;12.286;2023-07-24T10:34:37;99946.59;;;28.55
34807;BMP280;18310;55.586;12.286;2023-07-24T10:37:40;99949.94;;;28.59
34807;BMP280;18310;55.586;12.286;2023-07-24T10:40:45;99951.97;;;28.64
34807;BMP280;18310;55.586;12.286;2023-07-24T10:43:49;99951.78;;;28.68
34807;BMP280;18310;55.586;12.286;2023-07-24T10:46:53;99948.19;;;28.62
34807;BMP280;18310;55.586;12.286;2023-07-24T10:49:58;99945.31;;;28.56
34807;BMP280;18310;55.586;12.286;2023-07-24T10:53:03;99948.94;;;28.62
34807;BMP280;18310;55.586;12.286;2023-07-24T10:56:07;99941.59;;;28.76
34807;BMP280;18310;55.586;12.286;2023-07-24T10:59:10;99952.84;;;28.87
34807;BMP280;18310;55.586;12.286;2023-07-24T11:02:16;99952.09;;;28.92
34807;BMP280;18310;55.586;12.286;2023-07-24T11:05:21;99945.53;;;29.00
34807;BMP280;18310;55.586;12.286;2023-07-24T11:08:25;99933.84;;;29.07
34807;BMP280;18310;55.586;12.286;2023-07-24T11:11:29;99940.75;;;29.06
34807;BMP280;18310;55.586;12.286;2023-07-24T11:14:34;99953.69;;;29.09
34807;BMP280;18310;55.586;12.286;2023-07-24T11:17:40;99952.47;;;29.16
34807;BMP280;18310;55.586;12.286;2023-07-24T11:20:47;99960.38;;;29.23
34807;BMP280;18310;55.586;12.286;2023-07-24T11:23:52;99961.66;;;29.16
34807;BMP280;18310;55.586;12.286;2023-07-24T11:26:56;99954.25;;;29.08
34807;BMP280;18310;55.586;12.286;2023-07-24T11:30:00;99950.09;;;28.92
34807;BMP280;18310;55.586;12.286;2023-07-24T11:33:05;99959.47;;;28.84
34807;BMP280;18310;55.586;12.286;2023-07-24T11:36:10;99956.19;;;28.85
34807;BMP280;18310;55.586;12.286;2023-07-24T11:39:21;99953.19;;;29.00
34807;BMP280;18310;55.586;12.286;2023-07-24T11:42:26;99952.97;;;29.09
34807;BMP280;18310;55.586;12.286;2023-07-24T11:45:29;99948.16;;;29.26
34807;BMP280;18310;55.586;12.286;2023-07-24T11:48:33;99952.50;;;29.33
34807;BMP280;18310;55.586;12.286;2023-07-24T11:51:45;99962.00;;;29.52
34807;BMP280;18310;55.586;12.286;2023-07-24T11:54:55;99952.03;;;29.62
34807;BMP280;18310;55.586;12.286;2023-07-24T11:58:01;99951.78;;;29.71
34807;BMP280;18310;55.586;12.286;2023-07-24T12:01:06;99946.94;;;29.71
34807;BMP280;18310;55.586;12.286;2023-07-24T12:04:10;99954.59;;;29.76
34807;BMP280;18310;55.586;12.286;2023-07-24T12:07:15;99947.72;;;29.88
34807;BMP280;18310;55.586;12.286;2023-07-24T12:10:25;99945.91;;;29.91
34807;BMP280;18310;55.586;12.286;2023-07-24T12:13:29;99954.63;;;29.93
34807;BMP280;18310;55.586;12.286;2023-07-24T12:16:34;99958.69;;;29.98
34807;BMP280;18310;55.586;12.286;2023-07-24T12:19:37;99946.94;;;29.93
34807;BMP280;18310;55.586;12.286;2023-07-24T12:22:42;99947.94;;;29.90
34807;BMP280;18310;55.586;12.286;2023-07-24T12:25:47;99945.94;;;29.85
34807;BMP280;18310;55.586;12.286;2023-07-24T12:28:51;99944.66;;;29.81
34807;BMP280;18310;55.586;12.286;2023-07-24T12:31:54;99952.06;;;29.78
34807;BMP280;18310;55.586;12.286;2023-07-24T12:34:58;99949.53;;;29.75
34807;BMP280;18310;55.586;12.286;2023-07-24T12:38:03;99944.16;;;29.77
34807;BMP280;18310;55.586;12.286;2023-07-24T12:41:07;99955.63;;;29.73
34807;BMP280;18310;55.586;12.286;2023-07-24T12:44:10;99940.31;;;29.69
34807;BMP280;18310;55.586;12.286;2023-07-24T12:47:14;99949.78;;;29.66
34807;BMP280;18310;55.586;12.286;2023-07-24T12:50:17;99935.50;;;29.64
34807;BMP280;18310;55.586;12.286;2023-07-24T12:53:22;99939.81;;;29.65
34807;BMP280;18310;55.586;12.286;2023-07-24T12:56:36;99928.84;;;29.72
34807;BMP280;18310;55.586;12.286;2023-07-24T12:59:39;99926.03;;;29.78
34807;BMP280;18310;55.586;12.286;2023-07-24T13:02:42;99924.25;;;29.86
34807;BMP280;18310;55.586;12.286;2023-07-24T13:05:48;99928.34;;;29.96
34807;BMP280;18310;55.586;12.286;2023-07-24T13:08:53;99933.66;;;30.05
34807;BMP280;18310;55.586;12.286;2023-07-24T13:11:56;99925.53;;;30.07
34807;BMP280;18310;55.586;12.286;2023-07-24T13:15:00;99928.06;;;30.05
34807;BMP280;18310;55.586;12.286;2023-07-24T13:18:03;99919.13;;;30.01
34807;BMP280;18310;55.586;12.286;2023-07-24T13:21:26;99917.13;;;29.96
34807;BMP280;18310;55.586;12.286;2023-07-24T13:24:32;99924.50;;;30.05
34807;BMP280;18310;55.586;12.286;2023-07-24T13:27:36;99919.88;;;30.13
34807;BMP280;18310;55.586;12.286;2023-07-24T13:30:39;99918.34;;;30.17
34807;BMP280;18310;55.586;12.286;2023-07-24T13:33:43;99930.84;;;30.27
34807;BMP280;18310;55.586;12.286;2023-07-24T13:36:46;99913.19;;;30.38
34807;BMP280;18310;55.586;12.286;2023-07-24T13:39:51;99916.53;;;30.31
34807;BMP280;18310;55.586;12.286;2023-07-24T13:42:55;99910.69;;;30.23
34807;BMP280;18310;55.586;12.286;2023-07-24T13:45:59;99911.72;;;30.20
34807;BMP280;18310;55.586;12.286;2023-07-24T13:49:03;99909.41;;;30.24
34807;BMP280;18310;55.586;12.286;2023-07-24T13:52:07;99902.25;;;30.23
34807;BMP280;18310;55.586;12.286;2023-07-24T13:55:35;99905.81;;;30.29
34807;BMP280;18310;55.586;12.286;2023-07-24T13:58:38;99900.94;;;30.35
34807;BMP280;18310;55.586;12.286;2023-07-24T14:01:42;99903.22;;;30.42
34807;BMP280;18310;55.586;12.286;2023-07-24T14:04:46;99901.94;;;30.43
34807;BMP280;18310;55.586;12.286;2023-07-24T14:07:50;99908.59;;;30.46
34807;BMP280;18310;55.586;12.286;2023-07-24T14:10:54;99905.50;;;30.49
34807;BMP280;18310;55.586;12.286;2023-07-24T14:13:59;99905.50;;;30.49
34807;BMP280;18310;55.586;12.286;2023-07-24T14:17:03;99885.28;;;30.56
34807;BMP280;18310;55.586;12.286;2023-07-24T14:20:07;99888.31;;;30.58
34807;BMP280;18310;55.586;12.286;2023-07-24T14:23:11;99892.16;;;30.61
34807;BMP280;18310;55.586;12.286;2023-07-24T14:26:16;99886.78;;;30.68
34807;BMP280;18310;55.586;12.286;2023-07-24T14:29:19;99881.38;;;30.70
34807;BMP280;18310;55.586;12.286;2023-07-24T14:32:22;99884.97;;;30.71
34807;BMP280;18310;55.586;12.286;2023-07-24T14:35:26;99882.69;;;30.64
34807;BMP280;18310;55.586;12.286;2023-07-24T14:38:29;99875.59;;;30.57
34807;BMP280;18310;55.586;12.286;2023-07-24T14:41:34;99871.81;;;30.44
34807;BMP280;18310;55.586;12.286;2023-07-24T14:44:37;99873.09;;;30.37
34807;BMP280;18310;55.586;12.286;2023-07-24T14:47:41;99861.91;;;30.32
34807;BMP280;18310;55.586;12.286;2023-07-24T14:50:44;99853.50;;;30.26
34807;BMP280;18310;55.586;12.286;2023-07-24T14:53:48;99865.00;;;30.17
34807;BMP280;18310;55.586;12.286;2023-07-24T14:56:53;99866.50;;;30.24
34807;BMP280;18310;55.586;12.286;2023-07-24T15:00:12;99861.13;;;30.26
34807;BMP280;18310;55.586;12.286;2023-07-24T15:03:16;99862.69;;;30.27
34807;BMP280;18310;55.586;12.286;2023-07-24T15:06:19;99858.84;;;30.24
34807;BMP280;18310;55.586;12.286;2023-07-24T15:09:23;99857.56;;;30.25
34807;BMP280;18310;55.586;12.286;2023-07-24T15:12:27;99868.06;;;30.19
34807;BMP280;18310;55.586;12.286;2023-07-24T15:15:32;99855.53;;;30.26
34807;BMP280;18310;55.586;12.286;2023-07-24T15:18:36;99865.44;;;30.38
34807;BMP280;18310;55.586;12.286;2023-07-24T15:21:39;99858.78;;;30.46
34807;BMP280;18310;55.586;12.286;2023-07-24T15:25:04;99854.66;;;30.53
34807;BMP280;18310;55.586;12.286;2023-07-24T15:28:15;99848.25;;;30.58
34807;BMP280;18310;55.586;12.286;2023-07-24T15:31:18;99849.75;;;30.64
34807;BMP280;18310;55.586;12.286;2023-07-24T15:34:21;99849.50;;;30.68
34807;BMP280;18310;55.586;12.286;2023-07-24T15:37:25;99837.00;;;30.63
34807;BMP280;18310;55.586;12.286;2023-07-24T15:40:31;99839.28;;;30.65
34807;BMP280;18310;55.586;12.286;2023-07-24T15:43:35;99846.16;;;30.64
34807;BMP280;18310;55.586;12.286;2023-07-24T15:46:38;99843.69;;;30.55
34807;BMP280;18310;55.586;12.286;2023-07-24T15:49:42;99835.00;;;30.47
34807;BMP280;18310;55.586;12.286;2023-07-24T15:52:48;99833.25;;;30.39
34807;BMP280;18310;55.586;12.286;2023-07-24T15:55:53;99835.06;;;30.36
34807;BMP280;18310;55.586;12.286;2023-07-24T15:58:56;99834.31;;;30.30
34807;BMP280;18310;55.586;12.286;2023-07-24T16:02:00;99815.97;;;30.24
34807;BMP280;18310;55.586;12.286;2023-07-24T16:05:04;99819.84;;;30.15
34807;BMP280;18310;55.586;12.286;2023-07-24T16:08:11;99817.06;;;30.04
34807;BMP280;18310;55.586;12.286;2023-07-24T16:11:16;99801.78;;;29.94
34807;BMP280;18310;55.586;12.286;2023-07-24T16:14:19;99796.72;;;29.81
34807;BMP280;18310;55.586;12.286;2023-07-24T16:17:28;99798.75;;;29.81
34807;BMP280;18310;55.586;12.286;2023-07-24T16:20:35;99796.72;;;29.70
34807;BMP280;18310;55.586;12.286;2023-07-24T16:23:38;99797.78;;;29.62
34807;BMP280;18310;55.586;12.286;2023-07-24T16:26:44;99805.94;;;29.60
34807;BMP280;18310;55.586;12.286;2023-07-24T16:29:48;99800.88;;;29.53
34807;BMP280;18310;55.586;12.286;2023-07-24T16:32:52;99806.72;;;29.55
34807;BMP280;18310;55.586;12.286;2023-07-24T16:35:56;99810.56;;;29.52
34807;BMP280;18310;55.586;12.286;2023-07-24T16:39:00;99805.19;;;29.48
34807;BMP280;18310;55.586;12.286;2023-07-24T16:42:05;99794.75;;;29.32
34807;BMP280;18310;55.586;12.286;2023-07-24T16:45:09;99802.63;;;29.34
34807;BMP280;18310;55.586;12.286;2023-07-24T16:48:29;99787.06;;;29.21
34807;BMP280;18310;55.586;12.286;2023-07-24T16:51:33;99792.69;;;29.10
34807;BMP280;18310;55.586;12.286;2023-07-24T16:54:37;99790.91;;;29.02
34807;BMP280;18310;55.586;12.286;2023-07-24T16:57:42;99792.19;;;28.95
34807;BMP280;18310;55.586;12.286;2023-07-24T17:00:46;99786.31;;;28.88
34807;BMP280;18310;55.586;12.286;2023-07-24T17:03:50;99782.75;;;28.82
34807;BMP280;18310;55.586;12.286;2023-07-24T17:06:57;99778.63;;;28.77
34807;BMP280;18310;55.586;12.286;2023-07-24T17:10:00;99765.91;;;28.71
34807;BMP280;18310;55.586;12.286;2023-07-24T17:13:04;99772.53;;;28.73
34807;BMP280;18310;55.586;12.286;2023-07-24T17:16:08;99772.53;;;28.73
34807;BMP280;18310;55.586;12.286;2023-07-24T17:19:11;99781.16;;;28.75
34807;BMP280;18310;55.586;12.286;2023-07-24T17:22:14;99789.81;;;28.77
34807;BMP280;18310;55.586;12.286;2023-07-24T17:25:18;99789.09;;;28.77
34807;BMP280;18310;55.586;12.286;2023-07-24T17:28:24;99782.19;;;28.78
34807;BMP280;18310;55.586;12.286;2023-07-24T17:31:50;99780.16;;;28.73
34807;BMP280;18310;55.586;12.286;2023-07-24T17:34:54;99792.59;;;28.66
34807;BMP280;18310;55.586;12.286;2023-07-24T17:37:59;99791.59;;;28.58